Time;durP1;ratioP1;P1;durP2;ratioP2;P2;SDS_P1;SDS_P2;PMS_P1;PMS_P2;Temp;Humidity;BMP_temperature;BMP_pressure;BME280_temperature;BME280_humidity;BME280_pressure;Samples;Min_cycle;Max_cycle;Signal;HPM_P1;HPM_P2
2022/10/22 00:01:35;;;;;;;35.63;30.20;;;;;;;;;;5081674;28;20032;-75
2022/10/22 00:04:01;;;;;;;39.17;31.23;;;;;;;;;;5082520;28;20035;-73
2022/10/22 00:06:26;;;;;;;35.70;26.33;;;;;;;;;;5082817;28;20103;-72
2022/10/22 00:08:51;;;;;;;34.58;26.55;;;;;;;;;;5073635;28;20044;-74
2022/10/22 00:11:18;;;;;;;45.38;34.78;;;;;;;;;;5078694;28;20055;-73
2022/10/22 00:13:43;;;;;;;39.22;30.63;;;;;;;;;;5082456;28;20024;-71
2022/10/22 00:16:08;;;;;;;32.85;26.63;;;;;;;;;;5082127;28;20028;-73
2022/10/22 00:18:34;;;;;;;34.45;26.80;;;;;;;;;;5081485;28;20067;-72
2022/10/22 00:21:00;;;;;;;33.03;25.83;;;;;;;;;;5072809;28;20411;-75
2022/10/22 00:23:25;;;;;;;25.77;20.33;;;;;;;;;;5075536;28;20016;-73
2022/10/22 00:25:52;;;;;;;21.13;16.77;;;;;;;;;;5076908;28;20903;-75
2022/10/22 00:28:17;;;;;;;27.33;20.63;;;;;;;;;;5069002;28;20027;-73
2022/10/22 00:30:42;;;;;;;28.90;22.52;;;;;;;;;;5069307;28;20038;-72
2022/10/22 00:33:08;;;;;;;28.23;24.08;;;;;;;;;;5070009;28;20052;-72
2022/10/22 00:35:33;;;;;;;27.27;23.17;;;;;;;;;;5070510;28;20077;-73
2022/10/22 00:37:58;;;;;;;33.50;25.92;;;;;;;;;;5072359;28;20459;-72
2022/10/22 00:40:24;;;;;;;33.33;27.08;;;;;;;;;;5071245;28;20127;-74
2022/10/22 00:42:49;;;;;;;52.17;40.92;;;;;;;;;;5073117;28;20059;-75
2022/10/22 00:45:17;;;;;;;60.78;47.45;;;;;;;;;;5071168;28;20016;-74
2022/10/22 00:47:45;;;;;;;51.17;40.95;;;;;;;;;;5080208;28;20074;-73
2022/10/22 00:50:31;;;;;;;46.53;41.38;;;;;;;;;;5081266;28;20115;-73
2022/10/22 00:52:57;;;;;;;49.08;43.88;;;;;;;;;;5018923;28;20037;-73
2022/10/22 00:55:24;;;;;;;41.95;37.38;;;;;;;;;;5019695;28;20048;-72
2022/10/22 00:57:49;;;;;;;35.55;30.45;;;;;;;;;;5016799;28;20354;-72
2022/10/22 01:00:15;;;;;;;27.50;23.52;;;;;;;;;;5006844;28;22773;-75
2022/10/22 01:02:40;;;;;;;26.90;20.63;;;;;;;;;;5011186;28;20112;-72
2022/10/22 01:05:06;;;;;;;25.45;19.45;;;;;;;;;;5015824;28;20073;-73
2022/10/22 01:07:33;;;;;;;21.08;17.88;;;;;;;;;;5018127;28;20485;-72
2022/10/22 01:10:07;;;;;;;58.03;44.08;;;;;;;;;;5018614;28;20111;-73
2022/10/22 01:12:42;;;;;;;53.80;41.63;;;;;;;;;;5017815;28;20408;-72
2022/10/22 01:15:22;;;;;;;57.58;50.70;;;;;;;;;;4993082;28;20036;-74
2022/10/22 01:18:00;;;;;;;50.70;40.53;;;;;;;;;;5017704;28;20049;-73
2022/10/22 01:20:25;;;;;;;50.40;39.13;;;;;;;;;;5018249;28;20033;-72
2022/10/22 01:22:53;;;;;;;40.13;33.65;;;;;;;;;;5015003;28;20041;-72
2022/10/22 01:25:27;;;;;;;42.13;35.25;;;;;;;;;;5011667;28;20037;-74
2022/10/22 01:27:55;;;;;;;38.03;29.63;;;;;;;;;;5017729;28;20036;-74
2022/10/22 01:30:21;;;;;;;35.33;27.27;;;;;;;;;;5051948;28;20082;-72
2022/10/22 01:32:51;;;;;;;41.90;32.17;;;;;;;;;;5075996;28;20051;-74
2022/10/22 01:35:31;;;;;;;57.15;41.25;;;;;;;;;;5081010;28;20413;-73
2022/10/22 01:37:58;;;;;;;61.30;42.15;;;;;;;;;;5081048;28;20023;-73
2022/10/22 01:40:25;;;;;;;62.42;44.13;;;;;;;;;;5079834;28;20024;-72
2022/10/22 01:43:09;;;;;;;55.60;40.83;;;;;;;;;;5078648;28;20597;-72
2022/10/22 01:45:36;;;;;;;51.10;36.42;;;;;;;;;;5074938;28;20127;-72
2022/10/22 01:48:20;;;;;;;47.70;34.70;;;;;;;;;;5079432;28;20055;-74
2022/10/22 01:50:56;;;;;;;47.35;34.95;;;;;;;;;;5069890;28;20429;-73
2022/10/22 01:53:26;;;;;;;53.53;35.47;;;;;;;;;;5080047;28;20035;-72
2022/10/22 01:55:56;;;;;;;36.75;26.50;;;;;;;;;;5079328;28;20455;-72
2022/10/22 01:58:21;;;;;;;;;;;;;;;;;;5080293;28;20031;-72
2022/10/22 02:00:54;;;;;;;24.03;20.37;;;;;;;;;;5080616;28;19919;-73
2022/10/22 02:03:23;;;;;;;43.97;34.20;;;;;;;;;;5080324;28;20081;-71
2022/10/22 02:05:52;;;;;;;35.00;28.23;;;;;;;;;;5071036;28;20028;-71
2022/10/22 02:08:28;;;;;;;25.10;20.90;;;;;;;;;;5077159;28;20034;-74
2022/10/22 02:10:54;;;;;;;26.85;24.02;;;;;;;;;;5080234;28;20020;-74
2022/10/22 02:13:38;;;;;;;25.52;22.75;;;;;;;;;;5081053;28;20305;-73
2022/10/22 02:16:06;;;;;;;31.48;25.10;;;;;;;;;;5079997;28;20031;-73
2022/10/22 02:18:32;;;;;;;35.10;27.33;;;;;;;;;;5080379;28;20032;-72
2022/10/22 02:20:59;;;;;;;37.70;27.10;;;;;;;;;;5079908;28;20028;-72
2022/10/22 02:23:25;;;;;;;36.00;28.42;;;;;;;;;;5070223;28;20035;-74
2022/10/22 02:25:52;;;;;;;36.67;27.90;;;;;;;;;;5075377;28;20382;-72
2022/10/22 02:28:28;;;;;;;31.50;24.58;;;;;;;;;;5078559;28;20181;-73
2022/10/22 02:30:59;;;;;;;28.85;23.73;;;;;;;;;;5069957;28;20024;-74
2022/10/22 02:33:30;;;;;;;29.42;22.75;;;;;;;;;;5080090;28;20089;-71
2022/10/22 02:35:57;;;;;;;26.42;20.98;;;;;;;;;;5079192;28;20453;-72
2022/10/22 02:38:24;;;;;;;17.55;15.75;;;;;;;;;;5080176;28;20091;-72
2022/10/22 02:40:49;;;;;;;17.77;15.93;;;;;;;;;;5069746;28;20069;-71
2022/10/22 02:43:16;;;;;;;20.80;16.55;;;;;;;;;;5079167;28;20454;-72
2022/10/22 02:45:41;;;;;;;19.50;17.38;;;;;;;;;;5079587;28;20059;-74
2022/10/22 02:48:07;;;;;;;20.90;17.33;;;;;;;;;;5078022;28;20124;-71
2022/10/22 02:50:32;;;;;;;57.25;51.28;;;;;;;;;;5080632;28;20036;-71
2022/10/22 02:52:57;;;;;;;48.53;42.50;;;;;;;;;;5083897;28;20028;-73
2022/10/22 02:55:23;;;;;;;50.08;39.53;;;;;;;;;;5084049;28;20110;-72
2022/10/22 02:57:48;;;;;;;38.83;30.77;;;;;;;;;;5083675;28;20024;-74
2022/10/22 03:00:14;;;;;;;32.28;24.60;;;;;;;;;;5083787;28;20458;-72
2022/10/22 03:02:39;;;;;;;30.95;24.70;;;;;;;;;;5083183;28;20111;-71
2022/10/22 03:05:05;;;;;;;28.50;25.40;;;;;;;;;;5084622;28;20415;-71
2022/10/22 03:07:30;;;;;;;28.90;25.80;;;;;;;;;;5083756;28;20048;-71
2022/10/22 03:09:55;;;;;;;32.75;27.63;;;;;;;;;;5075144;28;20023;-74
2022/10/22 03:12:21;;;;;;;32.50;28.10;;;;;;;;;;5077875;28;20031;-72
2022/10/22 03:14:46;;;;;;;32.17;27.48;;;;;;;;;;5083682;28;20108;-73
2022/10/22 03:17:12;;;;;;;30.17;26.48;;;;;;;;;;5083958;28;20046;-72
2022/10/22 03:19:37;;;;;;;30.05;26.55;;;;;;;;;;5082503;28;20076;-73
2022/10/22 03:22:09;;;;;;;29.40;26.20;;;;;;;;;;5082891;28;20044;-71
2022/10/22 03:24:38;;;;;;;29.92;23.95;;;;;;;;;;5082715;28;20973;-72
2022/10/22 03:27:03;;;;;;;;;;;;;;;;;;5083073;28;20024;-72
2022/10/22 03:29:30;;;;;;;27.63;24.40;;;;;;;;;;5083528;28;19916;-71
2022/10/22 03:31:55;;;;;;;29.42;24.13;;;;;;;;;;5073432;28;20443;-71
2022/10/22 03:34:21;;;;;;;26.52;23.70;;;;;;;;;;5080135;28;20031;-74
2022/10/22 03:36:47;;;;;;;27.60;22.67;;;;;;;;;;5082075;28;20439;-73
2022/10/22 03:39:13;;;;;;;47.65;32.95;;;;;;;;;;5082849;28;20364;-74
2022/10/22 03:41:39;;;;;;;77.50;57.22;;;;;;;;;;5083609;28;20024;-71
2022/10/22 03:44:04;;;;;;;51.35;40.85;;;;;;;;;;5083312;28;20046;-72
2022/10/22 03:46:30;;;;;;;60.65;43.08;;;;;;;;;;5083033;28;20458;-71
2022/10/22 03:48:55;;;;;;;38.47;29.95;;;;;;;;;;5083213;28;20222;-72
2022/10/22 03:51:21;;;;;;;38.78;31.38;;;;;;;;;;5082310;28;20085;-71
2022/10/22 03:53:46;;;;;;;36.17;29.80;;;;;;;;;;5083148;28;20043;-73
2022/10/22 03:56:12;;;;;;;36.83;29.98;;;;;;;;;;5083193;28;20165;-73
2022/10/22 03:58:39;;;;;;;33.78;29.73;;;;;;;;;;5082723;28;20036;-73
2022/10/22 04:01:05;;;;;;;35.85;30.48;;;;;;;;;;5080662;28;20021;-71
2022/10/22 04:03:30;;;;;;;34.67;30.42;;;;;;;;;;5081542;28;20031;-72
2022/10/22 04:06:00;;;;;;;37.42;29.92;;;;;;;;;;5078981;28;20036;-72
2022/10/22 04:08:25;;;;;;;34.90;28.48;;;;;;;;;;5074810;28;20039;-72
2022/10/22 04:10:51;;;;;;;35.45;27.80;;;;;;;;;;5074374;28;20028;-71
2022/10/22 04:13:16;;;;;;;32.35;27.15;;;;;;;;;;5080266;28;20020;-72
2022/10/22 04:15:41;;;;;;;32.75;27.90;;;;;;;;;;5081401;28;20034;-74
2022/10/22 04:18:06;;;;;;;32.33;26.77;;;;;;;;;;5071618;28;20510;-73
2022/10/22 04:20:32;;;;;;;33.90;26.63;;;;;;;;;;5081509;28;20377;-72
2022/10/22 04:22:57;;;;;;;33.05;27.17;;;;;;;;;;5082383;28;20035;-72
2022/10/22 04:25:23;;;;;;;37.08;31.80;;;;;;;;;;5082283;28;20026;-73
2022/10/22 04:27:48;;;;;;;45.50;40.92;;;;;;;;;;5080829;28;20459;-72
2022/10/22 04:30:13;;;;;;;45.55;40.80;;;;;;;;;;5071381;28;20056;-73
2022/10/22 04:32:39;;;;;;;49.67;42.45;;;;;;;;;;5080886;28;20020;-73
2022/10/22 04:35:04;;;;;;;57.28;48.17;;;;;;;;;;5082190;28;20370;-71
2022/10/22 04:37:31;;;;;;;42.72;37.60;;;;;;;;;;5096279;28;20060;-71
2022/10/22 04:39:57;;;;;;;35.20;30.42;;;;;;;;;;5082205;28;20484;-72
2022/10/22 04:42:22;;;;;;;78.57;54.20;;;;;;;;;;5080163;28;20031;-72
2022/10/22 04:44:47;;;;;;;125.18;76.72;;;;;;;;;;5080894;28;20039;-71
2022/10/22 04:47:13;;;;;;;71.30;49.92;;;;;;;;;;5080049;28;20028;-72
2022/10/22 04:49:39;;;;;;;37.67;29.75;;;;;;;;;;5082320;28;20044;-74
2022/10/22 04:52:04;;;;;;;51.45;42.42;;;;;;;;;;5081809;28;20304;-72
2022/10/22 04:54:29;;;;;;;33.92;29.70;;;;;;;;;;5081632;28;20027;-72
2022/10/22 04:56:55;;;;;;;35.08;30.58;;;;;;;;;;5080760;28;20132;-71
2022/10/22 04:59:20;;;;;;;37.08;30.15;;;;;;;;;;5081655;28;20470;-73
2022/10/22 05:01:45;;;;;;;51.00;38.70;;;;;;;;;;5081563;28;20028;-72
2022/10/22 05:04:12;;;;;;;56.05;45.00;;;;;;;;;;5081071;28;20039;-72
2022/10/22 05:06:38;;;;;;;57.05;45.65;;;;;;;;;;5080574;28;20089;-72
2022/10/22 05:09:04;;;;;;;59.97;50.40;;;;;;;;;;5080246;28;20043;-73
2022/10/22 05:11:34;;;;;;;54.90;47.85;;;;;;;;;;5081074;28;20410;-73
2022/10/22 05:14:00;;;;;;;70.90;52.72;;;;;;;;;;5080903;28;20024;-71
2022/10/22 05:16:27;;;;;;;62.60;48.25;;;;;;;;;;5079148;28;20367;-73
2022/10/22 05:18:52;;;;;;;35.28;31.35;;;;;;;;;;5079377;28;20085;-72
2022/10/22 05:21:19;;;;;;;59.67;46.95;;;;;;;;;;5081029;28;20032;-71
2022/10/22 05:23:45;;;;;;;41.28;34.70;;;;;;;;;;5080114;28;20032;-72
2022/10/22 05:26:11;;;;;;;43.72;32.88;;;;;;;;;;5080089;28;20023;-72
2022/10/22 05:28:36;;;;;;;75.63;54.85;;;;;;;;;;5080068;28;20067;-71
2022/10/22 05:31:02;;;;;;;74.70;57.85;;;;;;;;;;5078897;28;20067;-73
2022/10/22 05:33:28;;;;;;;50.50;42.55;;;;;;;;;;5081225;28;20024;-72
2022/10/22 05:35:54;;;;;;;48.33;39.85;;;;;;;;;;5071523;28;20027;-72
2022/10/22 05:38:19;;;;;;;40.83;34.88;;;;;;;;;;5066406;28;20038;-71
2022/10/22 05:40:45;;;;;;;45.88;38.90;;;;;;;;;;5070348;28;20028;-74
2022/10/22 05:43:10;;;;;;;46.45;39.03;;;;;;;;;;5067620;28;20401;-71
2022/10/22 05:45:36;;;;;;;95.45;77.05;;;;;;;;;;5078676;28;20336;-74
2022/10/22 05:48:02;;;;;;;80.40;69.70;;;;;;;;;;5079874;28;20059;-73
2022/10/22 05:50:27;;;;;;;65.93;58.05;;;;;;;;;;5079507;28;20032;-73
2022/10/22 05:52:53;;;;;;;50.70;44.83;;;;;;;;;;5080624;28;20048;-72
2022/10/22 05:55:18;;;;;;;40.40;35.35;;;;;;;;;;5080788;28;20032;-76
2022/10/22 05:57:43;;;;;;;41.28;35.83;;;;;;;;;;5080031;28;20556;-73
2022/10/22 06:00:09;;;;;;;44.22;39.05;;;;;;;;;;5079551;28;20024;-72
2022/10/22 06:02:34;;;;;;;58.72;47.38;;;;;;;;;;5079495;28;20020;-74
2022/10/22 06:05:00;;;;;;;112.93;84.60;;;;;;;;;;5073614;28;20022;-74
2022/10/22 06:07:25;;;;;;;183.60;143.85;;;;;;;;;;5065957;28;20462;-73
2022/10/22 06:09:52;;;;;;;137.65;108.57;;;;;;;;;;5066611;28;20471;-71
2022/10/22 06:12:18;;;;;;;81.60;63.55;;;;;;;;;;5066707;28;20043;-72
2022/10/22 06:14:43;;;;;;;83.80;63.35;;;;;;;;;;5066199;28;20035;-72
2022/10/22 06:17:10;;;;;;;71.82;55.72;;;;;;;;;;5067856;28;20051;-71
2022/10/22 06:19:35;;;;;;;55.90;45.53;;;;;;;;;;5066492;28;20344;-73
2022/10/22 06:22:02;;;;;;;96.88;82.95;;;;;;;;;;5077930;28;20024;-72
2022/10/22 06:24:27;;;;;;;116.43;99.53;;;;;;;;;;5066334;28;20119;-72
2022/10/22 06:26:53;;;;;;;68.85;60.55;;;;;;;;;;5072987;28;20169;-72
2022/10/22 06:29:18;;;;;;;46.42;40.97;;;;;;;;;;5075548;28;20042;-71
2022/10/22 06:31:43;;;;;;;43.60;38.90;;;;;;;;;;5074459;28;20031;-72
2022/10/22 06:34:10;;;;;;;52.92;45.50;;;;;;;;;;5069578;28;20031;-73
2022/10/22 06:36:36;;;;;;;66.70;59.10;;;;;;;;;;5068402;28;20431;-73
2022/10/22 06:39:02;;;;;;;84.20;74.85;;;;;;;;;;5080002;28;20038;-71
2022/10/22 06:41:27;;;;;;;87.45;76.47;;;;;;;;;;5078853;28;20112;-71
2022/10/22 06:43:53;;;;;;;100.13;87.32;;;;;;;;;;5079001;28;20089;-72
2022/10/22 06:46:19;;;;;;;115.15;100.55;;;;;;;;;;5079631;28;20492;-73
2022/10/22 06:48:55;;;;;;;120.80;101.10;;;;;;;;;;5077310;28;20052;-73
2022/10/22 06:51:21;;;;;;;115.72;96.10;;;;;;;;;;5068378;28;20067;-73
2022/10/22 06:53:46;;;;;;;140.52;116.55;;;;;;;;;;5071644;28;20089;-72
2022/10/22 06:56:13;;;;;;;131.75;112.80;;;;;;;;;;5070179;28;20063;-72
2022/10/22 06:58:38;;;;;;;137.65;122.47;;;;;;;;;;5078129;28;20024;-71
2022/10/22 07:01:05;;;;;;;116.30;102.10;;;;;;;;;;5078906;28;20466;-72
2022/10/22 07:03:30;;;;;;;114.22;99.22;;;;;;;;;;5078391;28;20016;-75
2022/10/22 07:06:06;;;;;;;93.93;71.25;;;;;;;;;;5066017;28;20020;-73
2022/10/22 07:08:32;;;;;;;85.60;66.80;;;;;;;;;;5072397;28;20081;-71
2022/10/22 07:11:04;;;;;;;72.57;57.55;;;;;;;;;;5078659;28;20036;-74
2022/10/22 07:13:29;;;;;;;80.00;61.95;;;;;;;;;;5072647;28;20031;-73
2022/10/22 07:15:55;;;;;;;68.72;53.67;;;;;;;;;;5066844;28;20028;-73
2022/10/22 07:18:21;;;;;;;204.27;96.07;;;;;;;;;;5076309;28;20134;-73
2022/10/22 07:20:47;;;;;;;101.28;82.10;;;;;;;;;;5078809;28;20028;-73
2022/10/22 07:23:12;;;;;;;68.13;54.80;;;;;;;;;;5079805;28;20028;-72
2022/10/22 07:25:38;;;;;;;161.73;105.35;;;;;;;;;;5078831;28;20345;-73
2022/10/22 07:28:03;;;;;;;62.30;47.30;;;;;;;;;;5078728;28;20081;-74
2022/10/22 07:30:29;;;;;;;77.70;44.60;;;;;;;;;;5078072;28;20776;-74
2022/10/22 07:32:54;;;;;;;54.13;35.97;;;;;;;;;;5070340;28;20431;-73
2022/10/22 07:35:19;;;;;;;27.67;23.48;;;;;;;;;;5063983;28;20028;-74
2022/10/22 07:37:44;;;;;;;26.73;23.85;;;;;;;;;;5068436;28;20027;-72
2022/10/22 07:40:10;;;;;;;20.52;18.33;;;;;;;;;;5079692;28;20036;-73
2022/10/22 07:42:36;;;;;;;23.20;16.05;;;;;;;;;;5082280;28;20026;-72
2022/10/22 07:45:01;;;;;;;17.70;15.15;;;;;;;;;;5081851;28;20070;-75
2022/10/22 07:47:27;;;;;;;16.23;13.40;;;;;;;;;;5080649;28;20123;-71
2022/10/22 07:49:52;;;;;;;17.33;11.88;;;;;;;;;;5081945;28;20417;-72
2022/10/22 07:52:18;;;;;;;14.73;11.68;;;;;;;;;;5081103;28;20038;-73
2022/10/22 07:54:43;;;;;;;17.50;13.07;;;;;;;;;;5080306;28;20488;-74
2022/10/22 07:57:08;;;;;;;27.50;19.88;;;;;;;;;;5068968;28;20612;-73
2022/10/22 07:59:34;;;;;;;21.45;16.73;;;;;;;;;;5069186;28;20451;-73
2022/10/22 08:01:59;;;;;;;33.35;17.60;;;;;;;;;;5069145;28;20056;-71
2022/10/22 08:04:24;;;;;;;18.17;15.48;;;;;;;;;;5069916;28;20027;-70
2022/10/22 08:06:50;;;;;;;53.53;42.90;;;;;;;;;;5080095;28;20016;-72
2022/10/22 08:09:15;;;;;;;49.95;40.88;;;;;;;;;;5079638;28;20325;-71
2022/10/22 08:11:41;;;;;;;50.35;39.83;;;;;;;;;;5074847;28;20039;-71
2022/10/22 08:14:06;;;;;;;58.55;45.20;;;;;;;;;;5073025;28;20020;-70
2022/10/22 08:16:31;;;;;;;55.00;40.80;;;;;;;;;;5064689;28;21040;-71
2022/10/22 08:18:57;;;;;;;39.13;30.33;;;;;;;;;;5069900;28;20522;-69
2022/10/22 08:21:22;;;;;;;23.52;15.70;;;;;;;;;;5068163;28;20036;-69
2022/10/22 08:23:47;;;;;;;18.48;14.73;;;;;;;;;;5068057;28;20024;-72
2022/10/22 08:26:13;;;;;;;16.60;11.38;;;;;;;;;;5072795;28;20547;-69
2022/10/22 08:28:38;;;;;;;15.40;11.52;;;;;;;;;;5070946;28;20039;-71
2022/10/22 08:31:04;;;;;;;13.77;11.63;;;;;;;;;;5068241;28;20020;-72
2022/10/22 08:33:30;;;;;;;15.60;10.70;;;;;;;;;;5074290;28;20035;-74
2022/10/22 08:35:55;;;;;;;13.13;9.40;;;;;;;;;;5081724;28;20028;-73
2022/10/22 08:38:21;;;;;;;10.85;9.20;;;;;;;;;;5080252;28;20036;-71
2022/10/22 08:41:06;;;;;;;10.75;8.48;;;;;;;;;;5079766;28;20332;-75
2022/10/22 08:43:41;;;;;;;12.43;11.07;;;;;;;;;;5081634;28;20059;-72
2022/10/22 08:46:09;;;;;;;15.27;10.25;;;;;;;;;;5081823;28;20031;-73
2022/10/22 08:48:38;;;;;;;10.55;9.45;;;;;;;;;;5080650;28;20047;-73
2022/10/22 08:51:03;;;;;;;13.30;10.10;;;;;;;;;;5067104;28;20088;-72
2022/10/22 08:53:52;;;;;;;11.88;8.05;;;;;;;;;;5078179;28;20032;-73
2022/10/22 08:56:17;;;;;;;10.18;9.10;;;;;;;;;;5062640;28;20044;-74
2022/10/22 08:58:54;;;;;;;15.57;8.98;;;;;;;;;;5070880;28;20052;-75
2022/10/22 09:01:22;;;;;;;10.63;8.98;;;;;;;;;;5067984;28;20063;-74
2022/10/22 09:03:53;;;;;;;15.00;13.32;;;;;;;;;;5067201;28;20073;-75
2022/10/22 09:06:21;;;;;;;12.35;9.80;;;;;;;;;;5066846;28;20028;-75
2022/10/22 09:08:47;;;;;;;8.57;7.70;;;;;;;;;;5065555;28;20368;-76
2022/10/22 09:11:12;;;;;;;8.98;8.07;;;;;;;;;;5065055;28;20032;-75
2022/10/22 09:13:42;;;;;;;9.77;8.77;;;;;;;;;;5065210;28;20628;-76
2022/10/22 09:16:23;;;;;;;14.38;8.75;;;;;;;;;;5068096;28;20027;-74
2022/10/22 09:18:59;;;;;;;9.95;8.32;;;;;;;;;;5067280;28;20042;-75
2022/10/22 09:21:32;;;;;;;10.30;8.68;;;;;;;;;;5068188;28;20031;-76
2022/10/22 09:24:11;;;;;;;14.57;11.20;;;;;;;;;;5081722;28;20442;-77
2022/10/22 09:26:38;;;;;;;10.90;7.70;;;;;;;;;;5067662;28;20027;-77
2022/10/22 09:29:04;;;;;;;11.30;9.15;;;;;;;;;;5070385;28;20107;-76
2022/10/22 09:31:30;;;;;;;11.43;9.52;;;;;;;;;;5066531;28;20110;-75
2022/10/22 09:33:56;;;;;;;11.27;8.05;;;;;;;;;;5070600;28;20027;-76
2022/10/22 09:36:22;;;;;;;15.40;10.70;;;;;;;;;;5077085;28;20443;-75
2022/10/22 09:38:52;;;;;;;11.43;9.23;;;;;;;;;;5080883;28;20036;-76
2022/10/22 09:41:18;;;;;;;13.90;10.70;;;;;;;;;;5080012;28;20024;-77
2022/10/22 09:43:46;;;;;;;14.48;12.40;;;;;;;;;;5082088;28;20028;-75
2022/10/22 09:46:16;;;;;;;9.60;8.23;;;;;;;;;;5082708;28;20024;-76
2022/10/22 09:48:46;;;;;;;13.00;9.20;;;;;;;;;;5079611;28;20044;-77
2022/10/22 09:51:19;;;;;;;9.38;8.35;;;;;;;;;;5082918;28;20096;-78
2022/10/22 09:53:46;;;;;;;15.07;10.15;;;;;;;;;;5082826;28;20089;-77
2022/10/22 09:56:22;;;;;;;15.05;11.57;;;;;;;;;;5082284;28;20371;-77
2022/10/22 09:58:50;;;;;;;16.23;13.35;;;;;;;;;;5082232;28;20060;-78
2022/10/22 10:01:21;;;;;;;22.15;15.48;;;;;;;;;;5082649;28;20032;-77
2022/10/22 10:03:47;;;;;;;12.85;11.48;;;;;;;;;;5082778;28;20032;-79
2022/10/22 10:06:16;;;;;;;16.35;9.65;;;;;;;;;;5079785;28;20085;-75
2022/10/22 10:08:41;;;;;;;17.13;14.60;;;;;;;;;;5068373;28;20089;-77
2022/10/22 10:11:11;;;;;;;11.90;9.43;;;;;;;;;;5082323;28;21222;-77
2022/10/22 10:13:42;;;;;;;13.60;11.55;;;;;;;;;;5079895;28;20096;-76
2022/10/22 10:16:26;;;;;;;16.25;12.75;;;;;;;;;;5083145;28;20089;-77
2022/10/22 10:19:18;;;;;;;11.15;8.30;;;;;;;;;;5071825;28;20028;-77
2022/10/22 10:21:54;;;;;;;15.77;11.80;;;;;;;;;;5030859;28;20068;-78
2022/10/22 10:24:25;;;;;;;14.07;12.52;;;;;;;;;;5025650;28;20174;-79
2022/10/22 10:26:53;;;;;;;16.10;12.43;;;;;;;;;;5030757;28;20461;-78
2022/10/22 10:29:30;;;;;;;18.52;14.07;;;;;;;;;;5020712;28;20102;-78
2022/10/22 10:31:58;;;;;;;9.45;6.97;;;;;;;;;;5027791;28;20213;-77
2022/10/22 10:34:36;;;;;;;9.07;6.70;;;;;;;;;;5025971;28;20100;-78
2022/10/22 10:37:22;;;;;;;11.07;9.77;;;;;;;;;;5029669;28;20104;-79
2022/10/22 10:40:06;;;;;;;7.28;6.55;;;;;;;;;;5028278;28;20088;-77
2022/10/22 10:42:50;;;;;;;17.85;14.85;;;;;;;;;;5027816;28;20404;-76
2022/10/22 10:45:19;;;;;;;11.45;9.30;;;;;;;;;;5028919;28;20037;-77
2022/10/22 10:48:09;;;;;;;11.48;6.35;;;;;;;;;;5027726;28;20461;-77
2022/10/22 10:50:50;;;;;;;7.97;6.95;;;;;;;;;;5028251;28;20391;-78
2022/10/22 10:53:21;;;;;;;10.00;7.30;;;;;;;;;;5027636;28;20451;-77
2022/10/22 10:55:53;;;;;;;9.88;7.07;;;;;;;;;;5029683;28;20419;-77
2022/10/22 10:58:21;;;;;;;9.32;6.90;;;;;;;;;;5050551;28;20467;-77
2022/10/22 11:00:59;;;;;;;9.83;7.17;;;;;;;;;;5081966;28;20043;-76
2022/10/22 11:03:57;;;;;;;10.05;7.78;;;;;;;;;;5079179;28;20055;-77
2022/10/22 11:06:24;;;;;;;8.40;6.15;;;;;;;;;;5020013;28;20030;-78
2022/10/22 11:09:12;;;;;;;7.90;6.47;;;;;;;;;;5004030;28;20032;-79
2022/10/22 11:11:41;;;;;;;9.10;6.43;;;;;;;;;;5017481;28;20530;-78
2022/10/22 11:14:06;;;;;;;;;;;;;;;;;;5024004;28;20340;-78
2022/10/22 11:16:31;;;;;;;7.63;6.33;;;;;;;;;;5014541;28;19913;-77
2022/10/22 11:19:03;;;;;;;8.07;6.60;;;;;;;;;;5024098;28;20041;-76
2022/10/22 11:21:38;;;;;;;6.90;5.80;;;;;;;;;;5022829;28;20523;-76
2022/10/22 11:24:04;;;;;;;8.80;6.43;;;;;;;;;;5021963;28;20025;-75
2022/10/22 11:26:32;;;;;;;9.82;6.53;;;;;;;;;;5024922;28;20044;-76
2022/10/22 11:28:59;;;;;;;12.35;8.48;;;;;;;;;;5022923;28;20056;-77
2022/10/22 11:31:24;;;;;;;7.53;6.28;;;;;;;;;;5023927;28;20033;-80
2022/10/22 11:33:52;;;;;;;9.23;6.45;;;;;;;;;;5007442;28;20032;-76
2022/10/22 11:36:18;;;;;;;9.00;6.95;;;;;;;;;;5023461;28;20037;-76
2022/10/22 11:38:43;;;;;;;8.43;6.55;;;;;;;;;;5024533;28;20045;-76
2022/10/22 11:41:11;;;;;;;6.45;5.75;;;;;;;;;;5015883;28;20055;-78
2022/10/22 11:43:56;;;;;;;6.40;5.20;;;;;;;;;;5074802;28;20020;-76
2022/10/22 11:46:21;;;;;;;10.13;7.53;;;;;;;;;;5078534;28;20031;-76
2022/10/22 11:49:19;;;;;;;10.20;5.93;;;;;;;;;;5076499;28;20051;-78
2022/10/22 11:51:46;;;;;;;6.70;4.95;;;;;;;;;;5055998;28;20534;-78
2022/10/22 11:54:26;;;;;;;7.53;5.88;;;;;;;;;;5069310;28;20019;-78
2022/10/22 11:56:56;;;;;;;7.50;6.35;;;;;;;;;;5069471;28;20118;-78
2022/10/22 11:59:38;;;;;;;9.48;6.43;;;;;;;;;;5070655;28;20020;-77
2022/10/22 12:02:21;;;;;;;11.55;7.15;;;;;;;;;;5073631;28;20021;-77
2022/10/22 12:04:46;;;;;;;6.80;5.38;;;;;;;;;;5070257;28;20095;-77
2022/10/22 12:07:30;;;;;;;8.00;5.72;;;;;;;;;;5069775;28;20552;-78
2022/10/22 12:09:56;;;;;;;8.00;5.47;;;;;;;;;;5066656;28;20093;-78
2022/10/22 12:12:22;;;;;;;9.13;5.85;;;;;;;;;;5067604;28;20024;-76
2022/10/22 12:14:55;;;;;;;12.98;6.50;;;;;;;;;;5073329;28;20366;-77
2022/10/22 12:17:21;;;;;;;10.75;5.45;;;;;;;;;;5075442;28;20084;-79
2022/10/22 12:19:48;;;;;;;8.23;5.32;;;;;;;;;;5070562;28;20447;-76
2022/10/22 12:22:20;;;;;;;13.73;5.63;;;;;;;;;;5070064;28;20047;-76
2022/10/22 12:24:50;;;;;;;7.15;5.07;;;;;;;;;;5073015;28;20039;-77
2022/10/22 12:27:49;;;;;;;5.88;5.15;;;;;;;;;;5069542;28;20099;-77
2022/10/22 12:30:22;;;;;;;14.05;5.70;;;;;;;;;;5021354;28;20045;-79
2022/10/22 12:32:50;;;;;;;7.97;6.40;;;;;;;;;;5004400;28;20034;-78
2022/10/22 12:35:16;;;;;;;7.13;5.22;;;;;;;;;;5018216;28;20044;-77
2022/10/22 12:37:42;;;;;;;7.35;5.30;;;;;;;;;;4997970;28;20040;-78
2022/10/22 12:40:21;;;;;;;13.70;6.10;;;;;;;;;;5016084;28;20037;-77
2022/10/22 12:42:55;;;;;;;8.27;5.85;;;;;;;;;;5002067;28;20388;-75
2022/10/22 12:45:21;;;;;;;9.10;5.60;;;;;;;;;;5024155;28;20061;-77
2022/10/22 12:47:47;;;;;;;7.68;5.07;;;;;;;;;;5010683;28;20500;-77
2022/10/22 12:50:21;;;;;;;9.65;5.95;;;;;;;;;;5003967;28;20422;-77
2022/10/22 12:52:46;;;;;;;9.60;5.00;;;;;;;;;;5022216;28;20047;-77
2022/10/22 12:55:16;;;;;;;7.40;5.10;;;;;;;;;;5023281;28;20105;-76
2022/10/22 12:57:42;;;;;;;7.90;4.90;;;;;;;;;;5022194;28;20112;-74
2022/10/22 13:00:18;;;;;;;12.13;5.50;;;;;;;;;;5016065;28;20109;-78
2022/10/22 13:02:44;;;;;;;5.38;4.45;;;;;;;;;;5016572;28;20037;-77
2022/10/22 13:05:09;;;;;;;8.50;4.68;;;;;;;;;;5023511;28;20036;-76
2022/10/22 13:07:40;;;;;;;6.40;4.65;;;;;;;;;;5073057;28;20020;-77
2022/10/22 13:10:20;;;;;;;8.38;4.40;;;;;;;;;;5066763;28;20039;-74
2022/10/22 13:12:50;;;;;;;11.90;5.07;;;;;;;;;;5067754;28;20027;-75
2022/10/22 13:15:27;;;;;;;9.63;4.82;;;;;;;;;;5064249;28;20399;-76
2022/10/22 13:18:05;;;;;;;6.22;4.55;;;;;;;;;;5072387;28;20028;-77
2022/10/22 13:20:30;;;;;;;8.30;5.20;;;;;;;;;;5068971;28;20088;-76
2022/10/22 13:23:01;;;;;;;7.75;6.05;;;;;;;;;;5064913;28;20455;-76
2022/10/22 13:25:31;;;;;;;11.60;6.47;;;;;;;;;;5079990;28;20343;-74
2022/10/22 13:27:58;;;;;;;7.93;5.00;;;;;;;;;;5078548;28;20093;-77
2022/10/22 13:30:26;;;;;;;11.40;5.60;;;;;;;;;;5070001;28;20123;-77
2022/10/22 13:32:53;;;;;;;9.98;6.85;;;;;;;;;;5081952;28;20020;-76
2022/10/22 13:35:20;;;;;;;17.80;9.00;;;;;;;;;;5080955;28;20028;-77
2022/10/22 13:37:45;;;;;;;18.35;8.45;;;;;;;;;;5082283;28;20085;-75
2022/10/22 13:40:12;;;;;;;20.45;14.27;;;;;;;;;;5073676;28;20024;-77
2022/10/22 13:42:38;;;;;;;17.92;9.48;;;;;;;;;;5076666;28;20028;-76
2022/10/22 13:45:04;;;;;;;21.23;11.63;;;;;;;;;;5083226;28;20107;-74
2022/10/22 13:47:30;;;;;;;21.60;13.00;;;;;;;;;;5083013;28;20127;-76
2022/10/22 13:49:57;;;;;;;14.75;7.88;;;;;;;;;;5074686;28;20052;-77
2022/10/22 13:52:29;;;;;;;14.18;6.93;;;;;;;;;;5067243;28;20023;-76
2022/10/22 13:54:54;;;;;;;10.45;6.35;;;;;;;;;;5067657;28;20104;-76
2022/10/22 13:57:20;;;;;;;14.65;8.23;;;;;;;;;;5067210;28;20499;-74
2022/10/22 13:59:45;;;;;;;28.00;12.95;;;;;;;;;;5068910;28;20028;-75
2022/10/22 14:02:11;;;;;;;24.52;13.80;;;;;;;;;;5067658;28;20028;-76
2022/10/22 14:04:37;;;;;;;42.10;16.80;;;;;;;;;;5067971;28;21627;-75
2022/10/22 14:07:04;;;;;;;40.65;23.05;;;;;;;;;;5066339;28;20051;-74
2022/10/22 14:09:29;;;;;;;158.00;116.97;;;;;;;;;;5066517;28;20470;-77
2022/10/22 14:11:55;;;;;;;33.17;21.52;;;;;;;;;;5066493;28;20024;-77
2022/10/22 14:14:20;;;;;;;27.42;16.88;;;;;;;;;;5066101;28;20487;-77
2022/10/22 14:16:45;;;;;;;22.40;12.88;;;;;;;;;;5065837;28;20034;-76
2022/10/22 14:19:14;;;;;;;26.95;14.95;;;;;;;;;;5066256;28;20032;-76
2022/10/22 14:21:39;;;;;;;22.73;15.20;;;;;;;;;;5068280;28;20027;-76
2022/10/22 14:24:05;;;;;;;15.23;10.98;;;;;;;;;;5072874;28;20834;-75
2022/10/22 14:26:32;;;;;;;13.52;10.30;;;;;;;;;;5065293;28;20032;-77
2022/10/22 14:29:01;;;;;;;22.58;15.20;;;;;;;;;;5066881;28;20032;-74
2022/10/22 14:31:26;;;;;;;20.52;16.30;;;;;;;;;;5069611;28;20034;-74